createdAt,value
2018-07-21T00:00:46.107Z,10.13
2018-07-21T00:03:14.529Z,9.23
2018-07-21T00:05:42.962Z,9.00
2018-07-21T00:08:11.292Z,10.50
2018-07-21T00:10:39.659Z,10.83
2018-07-21T00:13:08.005Z,10.70
2018-07-21T00:15:36.324Z,11.00
2018-07-21T00:18:04.879Z,11.40
2018-07-21T00:20:33.338Z,10.80
2018-07-21T00:23:01.687Z,10.20
2018-07-21T00:25:30.020Z,12.00
2018-07-21T00:27:58.344Z,10.77
2018-07-21T00:30:26.675Z,12.67
2018-07-21T00:32:55.019Z,11.17
2018-07-21T00:35:23.328Z,9.70
2018-07-21T00:37:51.666Z,10.10
2018-07-21T00:40:19.987Z,10.20
2018-07-21T00:42:48.339Z,10.20
2018-07-21T00:45:16.649Z,12.13
2018-07-21T00:47:44.984Z,10.93
2018-07-21T00:50:13.308Z,13.30
2018-07-21T00:52:41.625Z,9.87
2018-07-21T00:55:10.091Z,12.07
2018-07-21T00:57:38.453Z,11.80
2018-07-21T01:00:06.927Z,10.67
2018-07-21T01:02:35.358Z,10.87
2018-07-21T01:05:03.812Z,10.40
2018-07-21T01:07:32.163Z,9.03
2018-07-21T01:10:00.623Z,9.07
2018-07-21T01:12:28.944Z,9.97
2018-07-21T01:14:57.236Z,9.10
2018-07-21T01:17:25.571Z,9.80
2018-07-21T01:19:53.883Z,10.90
2018-07-21T01:22:22.255Z,13.23
2018-07-21T01:24:50.556Z,10.03
2018-07-21T01:27:18.917Z,13.37
2018-07-21T01:29:47.273Z,15.00
2018-07-21T01:32:15.632Z,10.87
2018-07-21T01:34:43.972Z,12.77
2018-07-21T01:37:12.306Z,11.47
2018-07-21T01:39:40.622Z,10.87
2018-07-21T01:42:08.958Z,13.17
2018-07-21T01:44:37.274Z,12.00
2018-07-21T01:47:05.768Z,10.53
2018-07-21T01:49:34.073Z,13.70
2018-07-21T01:52:02.393Z,12.23
2018-07-21T01:54:30.711Z,9.93
2018-07-21T01:56:59.047Z,10.53
2018-07-21T01:59:27.439Z,12.40
2018-07-21T02:01:55.775Z,12.83
2018-07-21T02:04:23.824Z,13.07
2018-07-21T02:06:52.165Z,12.30
2018-07-21T02:09:20.469Z,12.27
2018-07-21T02:11:48.813Z,16.57
2018-07-21T02:14:17.148Z,12.20
2018-07-21T02:16:45.489Z,11.63
2018-07-21T02:19:13.809Z,12.10
2018-07-21T02:21:42.126Z,13.13
2018-07-21T02:24:10.463Z,13.40
2018-07-21T02:26:38.782Z,12.40
2018-07-21T02:29:07.126Z,12.43
2018-07-21T02:31:35.560Z,10.87
2018-07-21T02:34:03.907Z,12.20
2018-07-21T02:36:32.327Z,12.37
2018-07-21T02:39:00.762Z,14.97
2018-07-21T02:41:29.079Z,12.07
2018-07-21T02:43:57.419Z,12.67
2018-07-21T02:46:25.722Z,11.97
2018-07-21T02:48:54.051Z,11.80
2018-07-21T02:51:22.376Z,11.93
2018-07-21T02:53:50.789Z,12.17
2018-07-21T02:56:19.150Z,12.90
2018-07-21T02:58:47.501Z,13.27
2018-07-21T03:01:15.823Z,15.13
2018-07-21T03:03:44.163Z,12.77
2018-07-21T03:06:12.488Z,10.90
2018-07-21T03:08:40.813Z,12.63
2018-07-21T03:11:09.125Z,12.43
2018-07-21T03:13:37.463Z,13.37
2018-07-21T03:16:05.799Z,13.13
2018-07-21T03:18:34.151Z,13.93
2018-07-21T03:21:02.453Z,14.03
2018-07-21T03:23:30.778Z,15.80
2018-07-21T03:25:59.076Z,12.60
2018-07-21T03:28:27.435Z,14.07
2018-07-21T03:30:55.887Z,13.70
2018-07-21T03:33:24.173Z,12.80
2018-07-21T03:35:52.489Z,10.73
2018-07-21T03:38:20.819Z,14.13
2018-07-21T03:40:49.135Z,14.00
2018-07-21T03:43:17.491Z,12.00
2018-07-21T03:45:45.800Z,12.13
2018-07-21T03:48:14.141Z,10.40
2018-07-21T03:50:42.445Z,11.97
2018-07-21T03:53:10.774Z,12.70
2018-07-21T03:55:39.091Z,12.80
2018-07-21T03:58:07.438Z,11.80
2018-07-21T04:00:35.841Z,13.20
2018-07-21T04:03:04.129Z,13.80
2018-07-21T04:05:32.421Z,13.73
2018-07-21T04:08:00.769Z,12.17
2018-07-21T04:10:29.087Z,13.37
2018-07-21T04:12:57.403Z,12.90
2018-07-21T04:15:25.745Z,13.60
2018-07-21T04:17:54.057Z,10.80
2018-07-21T04:20:22.118Z,14.47
2018-07-21T04:22:50.416Z,15.67
2018-07-21T04:25:18.743Z,12.90
2018-07-21T04:27:47.060Z,14.20
2018-07-21T04:30:15.392Z,15.47
2018-07-21T04:32:43.703Z,14.63
2018-07-21T04:35:12.052Z,12.40
2018-07-21T04:37:40.356Z,12.90
2018-07-21T04:40:08.691Z,12.30
2018-07-21T04:42:37.016Z,13.63
2018-07-21T04:45:05.361Z,12.23
2018-07-21T04:47:33.670Z,14.80
2018-07-21T04:50:01.982Z,14.80
2018-07-21T04:52:30.313Z,13.13
2018-07-21T04:54:58.644Z,11.53
2018-07-21T04:57:26.953Z,13.63
2018-07-21T04:59:55.307Z,12.10
2018-07-21T05:02:23.621Z,11.63
2018-07-21T05:04:51.940Z,14.10
2018-07-21T05:07:20.309Z,12.57
2018-07-21T05:09:48.641Z,11.20
2018-07-21T05:12:16.949Z,13.90
2018-07-21T05:14:45.279Z,11.70
2018-07-21T05:17:13.576Z,12.63
2018-07-21T05:19:41.911Z,13.50
2018-07-21T05:22:10.213Z,13.83
2018-07-21T05:24:38.544Z,13.40
2018-07-21T05:27:06.861Z,13.57
2018-07-21T05:29:35.191Z,14.07
2018-07-21T05:32:03.515Z,14.53
2018-07-21T05:34:31.863Z,12.43
2018-07-21T05:37:00.211Z,14.20
2018-07-21T05:39:28.536Z,14.87
2018-07-21T05:41:56.891Z,14.43
2018-07-21T05:44:25.208Z,15.10
2018-07-21T05:46:53.540Z,12.60
2018-07-21T05:49:21.879Z,13.33
2018-07-21T05:51:50.230Z,16.53
2018-07-21T05:54:18.594Z,14.60
2018-07-21T05:56:46.929Z,15.90
2018-07-21T05:59:15.279Z,14.67
2018-07-21T06:01:43.724Z,14.00
2018-07-21T06:04:12.037Z,13.97
2018-07-21T06:06:40.354Z,13.73
2018-07-21T06:09:10.048Z,14.30
2018-07-21T06:11:38.453Z,16.40
2018-07-21T06:14:06.942Z,14.97
2018-07-21T06:16:35.261Z,13.97
2018-07-21T06:19:03.584Z,14.93
2018-07-21T06:21:31.923Z,12.87
2018-07-21T06:24:00.255Z,17.00
2018-07-21T06:26:28.688Z,16.30
2018-07-21T06:28:56.985Z,17.53
2018-07-21T06:31:25.315Z,16.20
2018-07-21T06:33:53.625Z,15.13
2018-07-21T06:36:22.193Z,17.60
2018-07-21T06:38:50.507Z,17.73
2018-07-21T06:41:18.861Z,15.50
2018-07-21T06:43:47.169Z,14.80
2018-07-21T06:46:15.523Z,13.67
2018-07-21T06:48:43.933Z,15.53
2018-07-21T06:51:12.280Z,18.70
2018-07-21T06:53:40.603Z,19.60
2018-07-21T06:56:08.942Z,18.80
2018-07-21T06:58:37.272Z,16.83
2018-07-21T07:01:06.948Z,17.10
2018-07-21T07:03:35.311Z,15.97
2018-07-21T07:06:03.691Z,16.20
2018-07-21T07:08:32.213Z,16.27
2018-07-21T07:11:00.572Z,17.77
2018-07-21T07:13:28.907Z,17.87
2018-07-21T07:15:57.306Z,13.57
2018-07-21T07:18:25.627Z,16.00
2018-07-21T07:20:53.960Z,18.53
2018-07-21T07:23:22.295Z,19.10
2018-07-21T07:25:50.656Z,16.93
2018-07-21T07:28:18.961Z,22.00
2018-07-21T07:30:47.328Z,19.73
2018-07-21T07:33:15.765Z,15.43
2018-07-21T07:35:44.110Z,18.70
2018-07-21T07:38:12.432Z,19.10
2018-07-21T07:40:40.771Z,19.13
2018-07-21T07:43:09.128Z,19.80
2018-07-21T07:45:37.467Z,17.80
2018-07-21T07:48:05.805Z,20.77
2018-07-21T07:50:34.161Z,19.10
2018-07-21T07:53:02.479Z,19.30
2018-07-21T07:55:32.307Z,18.67
2018-07-21T07:58:06.581Z,17.43
2018-07-21T08:00:34.996Z,16.27
2018-07-21T08:03:03.299Z,16.53
2018-07-21T08:05:31.650Z,18.43
2018-07-21T08:07:59.991Z,18.90
2018-07-21T08:10:28.466Z,16.33
2018-07-21T08:12:56.790Z,16.47
2018-07-21T08:15:25.119Z,16.27
2018-07-21T08:17:53.417Z,18.23
2018-07-21T08:20:21.763Z,17.33
2018-07-21T08:22:50.087Z,16.10
2018-07-21T08:25:18.436Z,14.80
2018-07-21T08:27:46.738Z,17.80
2018-07-21T08:30:15.044Z,15.00
2018-07-21T08:32:43.390Z,14.13
2018-07-21T08:35:11.724Z,17.03
2018-07-21T08:37:40.044Z,16.63
2018-07-21T08:40:09.184Z,14.70
2018-07-21T08:42:37.563Z,14.97
2018-07-21T08:45:06.382Z,14.70
2018-07-21T08:47:34.714Z,14.93
2018-07-21T08:50:03.063Z,13.73
2018-07-21T08:52:31.396Z,15.67
2018-07-21T08:54:59.711Z,16.73
2018-07-21T08:57:28.047Z,17.43
2018-07-21T08:59:56.447Z,15.30
2018-07-21T09:02:24.783Z,17.10
2018-07-21T09:04:53.089Z,17.37
2018-07-21T09:07:21.427Z,18.07
2018-07-21T09:09:49.747Z,18.90
2018-07-21T09:12:18.094Z,19.03
2018-07-21T09:14:46.401Z,18.60
2018-07-21T09:17:19.051Z,18.47
2018-07-21T09:19:48.144Z,18.97
2018-07-21T09:22:16.549Z,17.53
2018-07-21T09:24:44.853Z,24.23
2018-07-21T09:27:13.279Z,16.97
2018-07-21T09:29:41.589Z,16.77
2018-07-21T09:32:10.087Z,17.73
2018-07-21T09:34:38.408Z,19.27
2018-07-21T09:37:06.761Z,18.07
2018-07-21T09:39:35.099Z,17.63
2018-07-21T09:42:03.456Z,16.37
2018-07-21T09:44:32.227Z,17.43
2018-07-21T09:47:00.554Z,17.10
2018-07-21T09:49:28.848Z,17.20
2018-07-21T09:51:57.192Z,16.70
2018-07-21T09:54:25.523Z,17.63
2018-07-21T09:56:53.861Z,16.63
2018-07-21T09:59:22.301Z,15.57
2018-07-21T10:01:50.635Z,17.57
2018-07-21T10:04:18.955Z,16.40
2018-07-21T10:06:48.089Z,16.00
2018-07-21T10:09:16.402Z,14.53
2018-07-21T10:11:44.733Z,15.30
2018-07-21T10:14:13.051Z,13.20
2018-07-21T10:16:41.401Z,13.37
2018-07-21T10:19:09.711Z,14.93
2018-07-21T10:21:38.030Z,14.60
2018-07-21T10:24:11.976Z,14.53
2018-07-21T10:26:45.756Z,12.00
2018-07-21T10:29:14.743Z,12.67
2018-07-21T10:31:44.083Z,12.93
2018-07-21T10:34:12.681Z,11.40
2018-07-21T10:36:41.496Z,12.53
2018-07-21T10:39:12.559Z,12.40
2018-07-21T10:41:40.941Z,12.63
2018-07-21T10:44:09.265Z,11.70
2018-07-21T10:46:37.575Z,11.77
2018-07-21T10:49:07.019Z,11.37
2018-07-21T10:51:35.429Z,9.70
2018-07-21T10:54:04.147Z,10.03
2018-07-21T10:56:32.492Z,11.97
2018-07-21T10:59:01.043Z,11.00
2018-07-21T11:01:29.496Z,9.73
2018-07-21T11:03:57.824Z,11.13
2018-07-21T11:06:26.144Z,10.93
2018-07-21T11:08:54.457Z,9.90
2018-07-21T11:11:24.066Z,9.87
2018-07-21T11:13:52.496Z,11.13
2018-07-21T11:16:20.812Z,11.50
2018-07-21T11:18:49.167Z,11.50
2018-07-21T11:21:17.493Z,11.23
2018-07-21T11:23:45.828Z,13.20
2018-07-21T11:26:14.300Z,11.50
2018-07-21T11:28:42.631Z,11.47
2018-07-21T11:31:10.949Z,11.00
2018-07-21T11:33:39.283Z,11.87
2018-07-21T11:36:07.782Z,12.70
2018-07-21T11:38:35.976Z,12.33
2018-07-21T11:41:04.317Z,11.10
2018-07-21T11:43:32.657Z,11.67
2018-07-21T11:46:01.091Z,13.60
2018-07-21T11:48:29.441Z,13.50
2018-07-21T11:50:57.851Z,12.10
2018-07-21T11:53:26.180Z,11.33
2018-07-21T11:55:54.495Z,12.40
2018-07-21T11:58:22.578Z,12.63
2018-07-21T12:00:50.900Z,12.67
2018-07-21T12:03:19.242Z,13.10
2018-07-21T12:05:47.573Z,12.87
2018-07-21T12:08:15.916Z,12.47
2018-07-21T12:10:44.236Z,10.93
2018-07-21T12:13:12.603Z,12.53
2018-07-21T12:15:40.941Z,11.70
2018-07-21T12:18:09.277Z,12.83
2018-07-21T12:20:37.585Z,11.30
2018-07-21T12:23:05.937Z,14.73
2018-07-21T12:25:34.249Z,10.67
2018-07-21T12:28:02.569Z,10.70
2018-07-21T12:30:30.886Z,13.77
2018-07-21T12:32:59.339Z,11.77
2018-07-21T12:35:27.744Z,12.23
2018-07-21T12:37:56.199Z,12.73
2018-07-21T12:40:24.536Z,12.27
2018-07-21T12:42:52.889Z,12.10
2018-07-21T12:45:21.206Z,11.37
2018-07-21T12:47:49.524Z,11.73
2018-07-21T12:50:17.925Z,14.00
2018-07-21T12:52:46.257Z,13.00
2018-07-21T12:55:14.620Z,11.57
2018-07-21T12:57:42.931Z,12.03
2018-07-21T13:00:11.292Z,12.63
2018-07-21T13:02:39.619Z,12.80
2018-07-21T13:05:07.961Z,11.80
2018-07-21T13:07:36.349Z,13.73
2018-07-21T13:10:04.764Z,12.03
2018-07-21T13:12:33.068Z,11.60
2018-07-21T13:15:01.405Z,12.00
2018-07-21T13:17:29.705Z,11.37
2018-07-21T13:19:58.023Z,12.00
2018-07-21T13:22:26.331Z,11.07
2018-07-21T13:24:54.664Z,10.83
2018-07-21T13:27:22.969Z,11.77
2018-07-21T13:29:51.427Z,10.73
2018-07-21T13:32:19.724Z,11.00
2018-07-21T13:34:48.056Z,12.20
2018-07-21T13:37:16.448Z,11.83
2018-07-21T13:39:44.556Z,10.80
2018-07-21T13:42:12.861Z,11.10
2018-07-21T13:44:41.285Z,11.07
2018-07-21T13:47:09.607Z,11.77
2018-07-21T13:49:37.928Z,12.20
2018-07-21T13:52:06.233Z,11.00
2018-07-21T13:54:34.619Z,12.63
2018-07-21T13:57:02.944Z,12.73
2018-07-21T13:59:31.308Z,11.23
2018-07-21T14:01:59.627Z,11.60
2018-07-21T14:04:27.949Z,11.63
2018-07-21T14:06:56.264Z,11.40
2018-07-21T14:09:24.581Z,12.07
2018-07-21T14:11:52.895Z,12.67
2018-07-21T14:14:21.231Z,12.37
2018-07-21T14:16:49.589Z,12.40
2018-07-21T14:19:17.948Z,13.37
2018-07-21T14:21:46.287Z,11.60
2018-07-21T14:24:14.936Z,11.20
2018-07-21T14:26:43.261Z,10.60
2018-07-21T14:29:11.619Z,11.13
2018-07-21T14:31:39.957Z,11.57
2018-07-21T14:34:08.284Z,11.27
2018-07-21T14:36:36.647Z,11.97
2018-07-21T14:39:07.651Z,8.80
2018-07-21T14:41:36.982Z,8.17
2018-07-21T14:44:05.300Z,8.00
2018-07-21T14:46:33.615Z,8.87
2018-07-21T14:49:02.107Z,8.53
2018-07-21T14:51:30.417Z,8.83
2018-07-21T14:53:58.725Z,8.30
2018-07-21T14:56:27.150Z,8.20
2018-07-21T14:58:55.535Z,8.60
2018-07-21T15:01:24.029Z,8.27
2018-07-21T15:03:52.319Z,7.83
2018-07-21T15:06:20.775Z,8.43
2018-07-21T15:08:49.108Z,7.37
2018-07-21T15:11:17.421Z,7.27
2018-07-21T15:13:45.723Z,8.93
2018-07-21T15:16:14.051Z,7.83
2018-07-21T15:18:42.365Z,10.47
2018-07-21T15:21:10.703Z,8.23
2018-07-21T15:23:39.050Z,11.93
2018-07-21T15:26:07.387Z,15.33
2018-07-21T15:28:35.731Z,11.77
2018-07-21T15:31:04.081Z,12.70
2018-07-21T15:33:32.443Z,13.93
2018-07-21T15:36:00.780Z,17.80
2018-07-21T15:38:29.089Z,12.43
2018-07-21T15:40:57.433Z,10.90
2018-07-21T15:43:25.748Z,11.23
2018-07-21T15:45:54.105Z,12.83
2018-07-21T15:48:22.412Z,11.40
2018-07-21T15:50:50.751Z,11.30
2018-07-21T15:53:19.074Z,10.70
2018-07-21T15:55:47.405Z,11.13
2018-07-21T15:58:15.716Z,13.80
2018-07-21T16:00:44.108Z,10.93
2018-07-21T16:03:12.571Z,11.43
2018-07-21T16:05:40.931Z,10.47
2018-07-21T16:08:09.247Z,11.30
2018-07-21T16:10:37.592Z,9.77
2018-07-21T16:13:06.455Z,10.70
2018-07-21T16:15:34.822Z,13.07
2018-07-21T16:18:02.863Z,13.07
2018-07-21T16:20:31.988Z,11.30
2018-07-21T16:23:00.341Z,10.70
2018-07-21T16:25:28.665Z,12.20
2018-07-21T16:27:57.270Z,11.90
2018-07-21T16:30:25.831Z,13.23
2018-07-21T16:32:54.130Z,11.83
2018-07-21T16:35:22.475Z,11.70
2018-07-21T16:37:50.812Z,13.77
2018-07-21T16:40:19.190Z,13.07
2018-07-21T16:42:47.468Z,13.33
2018-07-21T16:45:15.614Z,12.03
2018-07-21T16:47:43.916Z,12.83
2018-07-21T16:50:12.241Z,11.30
2018-07-21T16:52:40.583Z,13.13
2018-07-21T16:55:09.010Z,12.60
2018-07-21T16:57:37.337Z,14.77
2018-07-21T17:00:05.706Z,12.33
2018-07-21T17:02:34.057Z,13.90
2018-07-21T17:05:02.375Z,12.90
2018-07-21T17:07:30.768Z,11.90
2018-07-21T17:09:59.091Z,11.57
2018-07-21T17:12:27.417Z,12.93
2018-07-21T17:14:55.735Z,13.23
2018-07-21T17:17:24.079Z,13.17
2018-07-21T17:19:52.399Z,12.13
2018-07-21T17:22:20.735Z,12.10
2018-07-21T17:24:49.059Z,11.43
2018-07-21T17:27:17.416Z,11.70
2018-07-21T17:29:45.790Z,11.57
2018-07-21T17:32:14.073Z,11.93
2018-07-21T17:34:42.373Z,12.40
2018-07-21T17:37:10.881Z,13.10
2018-07-21T17:39:39.223Z,11.93
2018-07-21T17:42:07.537Z,12.40
2018-07-21T17:44:35.903Z,11.83
2018-07-21T17:47:04.251Z,14.33
2018-07-21T17:49:32.568Z,13.53
2018-07-21T17:52:00.961Z,17.50
2018-07-21T17:54:29.311Z,15.17
2018-07-21T17:56:57.707Z,12.97
2018-07-21T17:59:26.093Z,13.20
2018-07-21T18:01:54.479Z,14.53
2018-07-21T18:04:22.820Z,12.97
2018-07-21T18:06:51.155Z,13.40
2018-07-21T18:09:19.464Z,14.50
2018-07-21T18:11:47.939Z,13.50
2018-07-21T18:14:16.278Z,12.83
2018-07-21T18:16:44.607Z,15.93
2018-07-21T18:19:12.937Z,14.53
2018-07-21T18:21:41.256Z,17.00
2018-07-21T18:24:09.568Z,18.37
2018-07-21T18:26:37.907Z,13.27
2018-07-21T18:29:06.314Z,13.60
2018-07-21T18:31:34.697Z,14.47
2018-07-21T18:34:03.016Z,14.40
2018-07-21T18:36:31.359Z,17.33
2018-07-21T18:38:59.685Z,15.10
2018-07-21T18:41:28.031Z,14.53
2018-07-21T18:43:56.393Z,14.80
2018-07-21T18:46:24.691Z,15.47
2018-07-21T18:48:53.023Z,15.80
2018-07-21T18:51:21.324Z,17.57
2018-07-21T18:53:49.651Z,18.57
2018-07-21T18:56:17.986Z,17.10
2018-07-21T18:58:46.343Z,16.00
2018-07-21T19:01:14.655Z,16.50
2018-07-21T19:03:42.998Z,18.97
2018-07-21T19:06:11.341Z,17.77
2018-07-21T19:08:44.999Z,19.70
2018-07-21T19:11:13.335Z,19.93
2018-07-21T19:13:41.657Z,20.73
2018-07-21T19:16:15.310Z,17.27
2018-07-21T19:18:43.643Z,19.10
2018-07-21T19:21:17.094Z,17.47
2018-07-21T19:23:46.097Z,19.80
2018-07-21T19:26:19.813Z,21.50
2018-07-21T19:28:48.172Z,21.90
2018-07-21T19:31:16.468Z,23.60
2018-07-21T19:33:44.832Z,20.37
2018-07-21T19:36:13.155Z,22.43
2018-07-21T19:38:41.473Z,20.67
2018-07-21T19:41:15.169Z,22.27
2018-07-21T19:43:43.499Z,23.43
2018-07-21T19:46:12.074Z,22.83
2018-07-21T19:48:40.603Z,22.30
2018-07-21T19:51:09.194Z,22.50
2018-07-21T19:53:37.556Z,22.33
2018-07-21T19:56:05.894Z,23.73
2018-07-21T19:58:34.517Z,23.70
2018-07-21T20:01:02.906Z,24.87
2018-07-21T20:03:31.236Z,24.70
2018-07-21T20:05:59.725Z,24.80
2018-07-21T20:08:28.111Z,24.90
2018-07-21T20:10:56.388Z,23.67
2018-07-21T20:13:24.845Z,25.10
2018-07-21T20:15:53.180Z,23.00
2018-07-21T20:18:21.528Z,22.97
2018-07-21T20:20:49.894Z,23.77
2018-07-21T20:23:18.213Z,23.67
2018-07-21T20:25:46.548Z,23.57
2018-07-21T20:28:14.941Z,25.50
2018-07-21T20:30:43.244Z,25.67
2018-07-21T20:33:11.579Z,23.80
2018-07-21T20:35:39.899Z,26.50
2018-07-21T20:38:08.229Z,26.80
2018-07-21T20:40:36.852Z,27.27
2018-07-21T20:43:05.192Z,24.47
2018-07-21T20:45:33.500Z,25.07
2018-07-21T20:48:01.837Z,25.07
2018-07-21T20:50:30.145Z,26.63
2018-07-21T20:52:58.462Z,24.27
2018-07-21T20:55:26.766Z,24.80
2018-07-21T20:57:55.128Z,25.80
2018-07-21T21:00:23.527Z,25.60
2018-07-21T21:02:51.793Z,26.93
2018-07-21T21:05:20.109Z,28.67
2018-07-21T21:07:48.424Z,27.60
2018-07-21T21:10:16.752Z,27.13
2018-07-21T21:12:45.081Z,27.63
2018-07-21T21:15:13.414Z,26.93
2018-07-21T21:17:41.740Z,28.47
2018-07-21T21:20:10.057Z,26.93
2018-07-21T21:22:38.398Z,26.93
2018-07-21T21:25:06.699Z,25.50
2018-07-21T21:27:35.005Z,26.63
2018-07-21T21:30:03.356Z,27.37
2018-07-21T21:32:31.673Z,28.47
2018-07-21T21:35:00.032Z,28.00
2018-07-21T21:37:28.337Z,26.10
2018-07-21T21:39:56.654Z,29.37
2018-07-21T21:42:24.981Z,26.70
2018-07-21T21:44:53.297Z,29.00
2018-07-21T21:47:21.607Z,30.67
2018-07-21T21:49:49.928Z,31.40
2018-07-21T21:52:18.248Z,32.33
2018-07-21T21:54:46.560Z,30.37
2018-07-21T21:57:14.856Z,31.63
2018-07-21T21:59:43.197Z,31.40
2018-07-21T22:02:11.577Z,31.13
2018-07-21T22:04:39.939Z,31.70
2018-07-21T22:07:08.229Z,30.90
2018-07-21T22:09:36.544Z,32.57
2018-07-21T22:12:04.873Z,31.33
2018-07-21T22:14:33.287Z,32.30
2018-07-21T22:17:01.673Z,29.27
2018-07-21T22:19:30.044Z,28.97
2018-07-21T22:21:58.379Z,29.77
2018-07-21T22:24:26.732Z,31.87
2018-07-21T22:26:55.048Z,33.23
2018-07-21T22:29:23.488Z,33.40
2018-07-21T22:31:51.810Z,31.80
2018-07-21T22:34:20.141Z,34.47
2018-07-21T22:36:48.479Z,33.10
2018-07-21T22:39:16.798Z,33.70
2018-07-21T22:41:45.095Z,31.33
2018-07-21T22:44:13.508Z,33.10
2018-07-21T22:46:41.752Z,32.33
2018-07-21T22:49:10.084Z,33.50
2018-07-21T22:51:38.455Z,34.63
2018-07-21T22:54:06.851Z,34.73
2018-07-21T22:56:35.148Z,33.97
2018-07-21T22:59:03.497Z,35.13
2018-07-21T23:01:31.801Z,36.40
2018-07-21T23:04:00.167Z,35.50
2018-07-21T23:06:28.511Z,34.40
2018-07-21T23:08:56.964Z,33.97
2018-07-21T23:11:25.283Z,35.03
2018-07-21T23:13:53.585Z,32.20
2018-07-21T23:16:21.947Z,34.03
2018-07-21T23:18:50.252Z,34.07
2018-07-21T23:21:18.573Z,34.17
2018-07-21T23:23:46.895Z,35.20
2018-07-21T23:26:15.248Z,36.30
2018-07-21T23:28:43.549Z,34.40
2018-07-21T23:31:11.875Z,35.67
2018-07-21T23:33:40.200Z,35.80
2018-07-21T23:36:08.533Z,38.17
2018-07-21T23:38:36.859Z,40.17
2018-07-21T23:41:05.177Z,42.03
2018-07-21T23:43:33.476Z,42.27
2018-07-21T23:46:01.832Z,41.93
2018-07-21T23:48:30.139Z,42.77
2018-07-21T23:50:58.481Z,40.67
2018-07-21T23:53:26.781Z,41.63
2018-07-21T23:55:55.119Z,41.87
2018-07-21T23:58:23.445Z,40.50
